Time;durP1;ratioP1;P1;durP2;ratioP2;P2;SDS_P1;SDS_P2;PMS_P1;PMS_P2;Temp;Humidity;BMP_temperature;BMP_pressure;BME280_temperature;BME280_humidity;BME280_pressure;Samples;Min_cycle;Max_cycle;Signal;HPM_P1;HPM_P2
2023/12/19 00:01:21;;;;;;;19.88;13.57;;;;;;;3.27;76.28;101917.59;4180305;28;20033;-65
2023/12/19 00:03:24;;;;;;;20.17;13.82;;;;;;;3.32;76.55;101908.50;4179917;28;20040;-66
2023/12/19 00:05:26;;;;;;;20.10;13.32;;;;;;;3.35;76.53;101904.38;4176140;28;20037;-66
2023/12/19 00:07:30;;;;;;;17.17;12.15;;;;;;;3.39;75.98;101896.97;4180055;28;20040;-66
2023/12/19 00:09:34;;;;;;;;;;;;;;;3.17;76.39;101899.78;4179972;28;20032;-66
2023/12/19 00:11:37;;;;;;;18.23;12.77;;;;;;;3.14;76.92;101903.03;4179771;28;19920;-66
2023/12/19 00:13:40;;;;;;;19.17;12.40;;;;;;;3.28;76.75;101900.50;4179558;28;20128;-66
2023/12/19 00:15:44;;;;;;;18.08;12.07;;;;;;;3.36;76.34;101904.47;4179299;28;20056;-65
2023/12/19 00:17:47;;;;;;;;;;;;;;;3.22;76.50;101905.22;4180119;28;20451;-65
2023/12/19 00:19:50;;;;;;;19.95;11.60;;;;;;;3.23;76.49;101897.63;4179008;28;19950;-65
2023/12/19 00:21:52;;;;;;;18.50;11.73;;;;;;;3.19;76.71;101887.03;4178676;28;20072;-65
2023/12/19 00:23:56;;;;;;;18.50;11.40;;;;;;;3.13;77.08;101880.69;4177913;28;20049;-65
2023/12/19 00:25:59;;;;;;;17.58;11.52;;;;;;;3.13;77.21;101869.53;4176800;28;20044;-66
2023/12/19 00:28:03;;;;;;;18.75;13.07;;;;;;;3.16;77.29;101873.97;4178576;28;20406;-66
2023/12/19 00:30:07;;;;;;;20.45;11.90;;;;;;;3.22;77.38;101872.69;4174730;28;20041;-66
2023/12/19 00:32:09;;;;;;;19.25;13.18;;;;;;;3.29;77.16;101892.00;4178739;28;20060;-66
2023/12/19 00:34:13;;;;;;;19.05;12.32;;;;;;;3.41;76.80;101894.50;4178894;28;20048;-66
2023/12/19 00:36:20;;;;;;;20.83;15.23;;;;;;;3.36;76.33;101898.41;4178904;28;20043;-65
2023/12/19 00:38:23;;;;;;;23.23;14.13;;;;;;;3.30;76.72;101898.91;4174131;28;20311;-65
2023/12/19 00:40:28;;;;;;;19.30;12.27;;;;;;;3.29;76.49;101899.72;4180270;28;20037;-65
2023/12/19 00:42:31;;;;;;;20.90;13.13;;;;;;;3.35;77.01;101887.25;4179016;28;20064;-65
2023/12/19 00:44:36;;;;;;;19.27;12.90;;;;;;;3.24;77.05;101886.56;4178950;28;20438;-66
2023/12/19 00:46:38;;;;;;;21.38;13.27;;;;;;;3.27;77.13;101893.56;4175750;28;20478;-66
2023/12/19 00:48:41;;;;;;;18.30;11.98;;;;;;;3.48;76.40;101882.13;4160930;28;20049;-66
2023/12/19 00:50:43;;;;;;;18.98;12.30;;;;;;;3.36;77.04;101881.34;4176518;28;20541;-66
2023/12/19 00:52:46;;;;;;;18.95;13.43;;;;;;;3.31;77.29;101877.56;4178093;28;20498;-66
2023/12/19 00:54:49;;;;;;;21.23;13.07;;;;;;;3.31;77.27;101885.28;4179191;28;20033;-65
2023/12/19 00:56:52;;;;;;;18.33;12.25;;;;;;;3.34;77.24;101880.31;4176174;28;20036;-66
2023/12/19 00:58:55;;;;;;;18.67;12.32;;;;;;;3.42;77.50;101875.72;4177798;28;20398;-66
2023/12/19 01:00:58;;;;;;;18.88;12.30;;;;;;;3.32;77.42;101864.81;4177324;28;20040;-66
2023/12/19 01:03:01;;;;;;;18.70;12.43;;;;;;;3.36;77.37;101853.06;4177612;28;20490;-66
2023/12/19 01:05:05;;;;;;;19.33;13.50;;;;;;;3.39;77.80;101857.50;4179256;28;20578;-65
2023/12/19 01:07:08;;;;;;;20.25;13.68;;;;;;;3.42;77.29;101873.16;4160481;28;20045;-65
2023/12/19 01:09:10;;;;;;;21.02;12.65;;;;;;;3.48;77.06;101881.25;4176601;28;20130;-65
2023/12/19 01:11:14;;;;;;;18.25;12.70;;;;;;;3.62;76.48;101897.56;4178041;28;20095;-66
2023/12/19 01:13:18;;;;;;;18.73;13.10;;;;;;;3.56;75.66;101900.63;4177780;28;20049;-66
2023/12/19 01:15:22;;;;;;;20.88;13.55;;;;;;;3.47;76.43;101900.91;4161053;28;20073;-65
2023/12/19 01:17:25;;;;;;;20.83;13.02;;;;;;;3.44;76.60;101904.97;4177190;28;20041;-66
2023/12/19 01:19:27;;;;;;;17.17;11.82;;;;;;;3.42;76.34;101915.16;4176728;28;20398;-65
2023/12/19 01:21:31;;;;;;;20.38;13.32;;;;;;;3.43;76.82;101906.66;4178641;28;20041;-65
2023/12/19 01:23:33;;;;;;;19.30;13.07;;;;;;;3.46;76.64;101898.25;4178264;28;20037;-66
2023/12/19 01:25:37;;;;;;;17.05;12.35;;;;;;;3.47;76.51;101897.47;4176797;28;20048;-66
2023/12/19 01:27:40;;;;;;;18.25;11.52;;;;;;;3.45;76.96;101892.22;4179541;28;20037;-66
2023/12/19 01:29:44;;;;;;;17.73;12.10;;;;;;;3.45;76.33;101894.78;4175301;28;20033;-66
2023/12/19 01:31:47;;;;;;;26.70;12.85;;;;;;;3.45;76.50;101889.66;4175870;28;20037;-65
2023/12/19 01:33:52;;;;;;;18.27;11.27;;;;;;;3.41;76.90;101887.66;4180044;28;20033;-65
2023/12/19 01:35:55;;;;;;;21.00;12.90;;;;;;;3.52;76.33;101884.91;4178614;28;20036;-66
2023/12/19 01:38:02;;;;;;;17.33;11.93;;;;;;;3.47;75.85;101892.31;4179987;28;20449;-66
2023/12/19 01:40:08;;;;;;;18.80;12.25;;;;;;;3.48;75.73;101892.41;4180001;28;20053;-66
2023/12/19 01:42:11;;;;;;;15.63;11.27;;;;;;;3.49;75.79;101894.22;4178908;28;20071;-67
2023/12/19 01:44:18;;;;;;;20.80;13.52;;;;;;;3.37;75.77;101888.25;4176082;28;20476;-66
2023/12/19 01:46:23;;;;;;;19.75;12.10;;;;;;;3.35;76.32;101883.81;4176211;28;20041;-66
2023/12/19 01:48:27;;;;;;;20.88;12.68;;;;;;;3.30;76.59;101875.75;4178041;28;20039;-66
2023/12/19 01:50:30;;;;;;;19.33;11.82;;;;;;;3.27;76.68;101867.84;4178016;28;20123;-65
2023/12/19 01:52:32;;;;;;;18.95;11.65;;;;;;;3.29;76.21;101867.19;4177572;28;20033;-65
2023/12/19 01:54:37;;;;;;;20.90;13.73;;;;;;;3.27;76.94;101867.84;4176929;28;20095;-66
2023/12/19 01:56:41;;;;;;;19.45;13.05;;;;;;;3.24;76.78;101877.94;4174170;28;20474;-66
2023/12/19 01:58:44;;;;;;;17.30;11.82;;;;;;;3.24;76.56;101873.72;4175370;28;20128;-66
2023/12/19 02:00:47;;;;;;;18.95;11.63;;;;;;;3.28;76.55;101869.66;4177096;28;20112;-65
2023/12/19 02:02:53;;;;;;;19.60;13.02;;;;;;;3.21;76.54;101872.59;4177133;28;20502;-65
2023/12/19 02:04:58;;;;;;;17.95;12.45;;;;;;;3.20;76.50;101876.84;4174911;28;20075;-65
2023/12/19 02:07:01;;;;;;;16.52;11.57;;;;;;;3.22;76.28;101876.97;4176918;28;20044;-66
2023/12/19 02:09:03;;;;;;;14.20;9.95;;;;;;;3.32;76.41;101874.22;4158030;28;21709;-66
2023/12/19 02:11:06;;;;;;;17.35;11.25;;;;;;;3.37;76.22;101874.50;4175166;28;20051;-66
2023/12/19 02:13:09;;;;;;;18.75;12.10;;;;;;;3.32;76.24;101876.78;4177914;28;20037;-66
2023/12/19 02:15:13;;;;;;;16.52;11.23;;;;;;;3.39;75.99;101873.81;4175243;28;20087;-66
2023/12/19 02:17:16;;;;;;;16.40;10.83;;;;;;;3.52;75.42;101874.63;4176662;28;20041;-66
2023/12/19 02:19:21;;;;;;;16.05;9.95;;;;;;;3.46;75.27;101876.00;4177933;28;20044;-66
2023/12/19 02:21:23;;;;;;;15.18;10.40;;;;;;;3.40;75.76;101883.31;4178131;28;20502;-67
2023/12/19 02:23:27;;;;;;;12.80;9.13;;;;;;;3.37;75.73;101877.97;4178492;28;20521;-66
2023/12/19 02:25:32;;;;;;;11.82;8.30;;;;;;;3.39;76.31;101872.91;4179011;28;20045;-66
2023/12/19 02:27:36;;;;;;;13.73;9.30;;;;;;;3.42;76.08;101868.88;4176118;28;20044;-67
2023/12/19 02:29:39;;;;;;;16.58;9.95;;;;;;;3.46;75.52;101867.38;4178253;28;20060;-67
2023/12/19 02:31:43;;;;;;;17.17;9.65;;;;;;;3.51;75.37;101865.16;4177177;28;20475;-66
2023/12/19 02:33:46;;;;;;;13.55;9.13;;;;;;;3.51;75.68;101867.72;4173840;28;20037;-66
2023/12/19 02:35:48;;;;;;;13.57;9.02;;;;;;;3.48;75.51;101871.84;4177391;28;20060;-66
2023/12/19 02:37:51;;;;;;;12.65;8.60;;;;;;;3.63;74.83;101869.38;4176921;28;20067;-66
2023/12/19 02:39:55;;;;;;;14.20;9.30;;;;;;;3.61;74.56;101876.13;4177068;28;20141;-66
2023/12/19 02:41:58;;;;;;;14.85;9.93;;;;;;;3.59;74.86;101881.94;4177087;28;20094;-67
2023/12/19 02:44:01;;;;;;;13.65;8.93;;;;;;;3.53;74.70;101885.00;4178536;28;20072;-66
2023/12/19 02:46:06;;;;;;;13.45;8.77;;;;;;;3.52;75.06;101869.47;4179626;28;20495;-66
2023/12/19 02:48:09;;;;;;;14.70;8.95;;;;;;;3.53;75.36;101881.56;4179034;28;20570;-66
2023/12/19 02:50:13;;;;;;;15.50;10.52;;;;;;;3.61;74.75;101885.53;4179400;28;20071;-66
2023/12/19 02:52:15;;;;;;;16.10;10.85;;;;;;;3.48;75.05;101881.25;4179625;28;20128;-66
2023/12/19 02:54:18;;;;;;;16.20;11.57;;;;;;;3.38;74.87;101877.19;4180440;28;20061;-66
2023/12/19 02:56:23;;;;;;;22.63;15.30;;;;;;;3.35;75.38;101873.53;4179821;28;20060;-67
2023/12/19 02:58:25;;;;;;;71.25;37.47;;;;;;;3.29;75.41;101871.44;4180315;28;20415;-66
2023/12/19 03:00:28;;;;;;;74.60;40.00;;;;;;;3.29;75.74;101874.88;4177397;28;20136;-66
2023/12/19 03:02:32;;;;;;;44.60;25.00;;;;;;;3.39;75.20;101885.78;4180440;28;20082;-67
2023/12/19 03:04:38;;;;;;;23.35;14.32;;;;;;;3.36;75.30;101889.06;4180313;28;20479;-66
2023/12/19 03:06:41;;;;;;;15.40;10.50;;;;;;;3.28;75.48;101880.81;4173179;28;20547;-67
2023/12/19 03:08:45;;;;;;;15.45;10.68;;;;;;;3.35;75.44;101881.25;4193801;28;20492;-66
2023/12/19 03:10:48;;;;;;;19.35;10.45;;;;;;;3.32;75.62;101881.91;4174487;28;20036;-66
2023/12/19 03:12:53;;;;;;;15.73;10.00;;;;;;;3.33;75.06;101873.44;4177534;28;20049;-66
2023/12/19 03:14:56;;;;;;;14.90;10.20;;;;;;;3.29;75.79;101864.59;4178385;28;20083;-66
2023/12/19 03:16:59;;;;;;;16.23;10.50;;;;;;;3.29;75.59;101863.72;4179293;28;20495;-67
2023/12/19 03:19:02;;;;;;;19.77;15.40;;;;;;;3.25;76.15;101854.03;4179012;28;20067;-66
2023/12/19 03:21:06;;;;;;;22.42;18.65;;;;;;;3.25;75.53;101859.16;4178649;28;20528;-66
2023/12/19 03:23:09;;;;;;;20.70;17.67;;;;;;;3.23;75.68;101853.06;4179100;28;20456;-66
2023/12/19 03:25:12;;;;;;;20.42;14.13;;;;;;;3.24;75.46;101854.81;4179808;28;20045;-67
2023/12/19 03:27:15;;;;;;;18.13;13.75;;;;;;;3.23;75.63;101851.34;4178329;28;20045;-66
2023/12/19 03:29:19;;;;;;;16.45;11.88;;;;;;;3.20;75.34;101864.00;4180588;28;20040;-66
2023/12/19 03:31:21;;;;;;;14.20;10.15;;;;;;;3.14;75.27;101854.22;4179374;28;20069;-66
2023/12/19 03:33:24;;;;;;;16.52;10.63;;;;;;;3.15;75.35;101860.22;4179047;28;20220;-66
2023/12/19 03:35:26;;;;;;;14.55;10.45;;;;;;;3.12;75.72;101858.34;4177125;28;20029;-66
2023/12/19 03:37:29;;;;;;;14.95;10.75;;;;;;;3.07;75.32;101846.88;4177412;28;20410;-66
2023/12/19 03:39:32;;;;;;;12.95;9.23;;;;;;;3.05;75.96;101845.91;4178062;28;20053;-66
2023/12/19 03:41:35;;;;;;;16.75;10.10;;;;;;;3.04;75.86;101843.19;4179434;28;20040;-67
2023/12/19 03:43:38;;;;;;;15.68;10.55;;;;;;;3.04;75.67;101838.97;4178383;28;20090;-66
2023/12/19 03:45:41;;;;;;;15.57;9.07;;;;;;;3.02;75.89;101829.38;4177322;28;20550;-66
2023/12/19 03:47:44;;;;;;;16.67;9.82;;;;;;;3.04;75.69;101831.25;4178953;28;20095;-66
2023/12/19 03:49:47;;;;;;;13.65;8.80;;;;;;;3.03;75.88;101821.75;4178701;28;20131;-66
2023/12/19 03:51:50;;;;;;;14.80;9.80;;;;;;;2.98;76.59;101812.88;4178149;28;20506;-66
2023/12/19 03:53:53;;;;;;;14.07;10.07;;;;;;;2.96;76.10;101804.16;4180111;28;20079;-66
2023/12/19 03:55:56;;;;;;;14.50;10.02;;;;;;;2.95;76.28;101800.69;4178535;28;20037;-66
2023/12/19 03:57:59;;;;;;;14.15;9.80;;;;;;;2.92;76.53;101804.72;4179202;28;20132;-66
2023/12/19 04:00:03;;;;;;;17.55;10.20;;;;;;;2.92;75.80;101808.22;4179269;28;20041;-66
2023/12/19 04:02:10;;;;;;;17.13;10.45;;;;;;;2.91;76.27;101813.25;4179637;28;20045;-66
2023/12/19 04:04:14;;;;;;;15.13;10.25;;;;;;;2.89;76.53;101822.50;4179534;28;20411;-67
2023/12/19 04:06:17;;;;;;;13.18;9.60;;;;;;;2.87;76.42;101812.13;4176133;28;20049;-66
2023/12/19 04:08:19;;;;;;;14.60;10.30;;;;;;;2.87;76.71;101811.25;4176413;28;20508;-66
2023/12/19 04:10:22;;;;;;;15.80;10.90;;;;;;;2.85;76.29;101813.72;4177370;28;20049;-66
2023/12/19 04:12:25;;;;;;;17.20;10.73;;;;;;;2.95;75.69;101816.13;4179226;28;20052;-66
2023/12/19 04:14:27;;;;;;;16.10;10.48;;;;;;;2.90;75.51;101814.03;4179286;28;20044;-66
2023/12/19 04:16:30;;;;;;;15.15;9.50;;;;;;;2.84;75.84;101814.50;4178143;28;20183;-66
2023/12/19 04:18:35;;;;;;;17.42;11.10;;;;;;;2.83;75.90;101812.72;4179776;28;20041;-66
2023/12/19 04:20:39;;;;;;;15.15;10.25;;;;;;;2.82;76.60;101815.19;4178739;28;20974;-66
2023/12/19 04:22:42;;;;;;;17.23;11.57;;;;;;;2.78;76.55;101804.69;4177701;28;20522;-66
2023/12/19 04:24:46;;;;;;;17.35;11.02;;;;;;;2.83;76.44;101805.00;4178822;28;20116;-65
2023/12/19 04:26:49;;;;;;;17.40;11.80;;;;;;;2.85;76.46;101810.25;4179121;28;20466;-65
2023/12/19 04:28:51;;;;;;;14.77;10.55;;;;;;;2.93;75.79;101799.69;4192439;28;20079;-65
2023/12/19 04:30:54;;;;;;;18.40;11.73;;;;;;;2.86;75.60;101791.47;4177055;28;20052;-65
2023/12/19 04:32:57;;;;;;;14.63;9.90;;;;;;;2.74;75.74;101791.56;4178250;28;20129;-65
2023/12/19 04:35:00;;;;;;;18.55;12.20;;;;;;;2.73;76.14;101785.53;4176474;28;20049;-65
2023/12/19 04:37:03;;;;;;;17.08;11.35;;;;;;;2.75;75.56;101798.47;4178000;28;20457;-65
2023/12/19 04:39:06;;;;;;;17.80;12.13;;;;;;;2.74;75.82;101806.97;4194710;28;20391;-65
2023/12/19 04:41:08;;;;;;;16.85;11.88;;;;;;;2.71;76.04;101810.22;4177963;28;20041;-65
2023/12/19 04:43:11;;;;;;;16.10;10.90;;;;;;;2.69;76.46;101816.03;4186216;28;20123;-65
2023/12/19 04:45:15;;;;;;;14.38;10.43;;;;;;;2.67;75.88;101815.91;4177190;28;20032;-65
2023/12/19 04:47:18;;;;;;;16.45;10.77;;;;;;;2.70;76.27;101807.53;4177208;28;20128;-65
2023/12/19 04:49:21;;;;;;;16.33;10.10;;;;;;;2.72;76.39;101808.56;4178357;28;20033;-65
2023/12/19 04:51:25;;;;;;;17.90;11.82;;;;;;;2.72;75.99;101796.59;4178861;28;20068;-67
2023/12/19 04:53:28;;;;;;;16.80;11.20;;;;;;;2.70;76.59;101810.09;4175182;28;20510;-66
2023/12/19 04:55:30;;;;;;;16.23;11.50;;;;;;;2.71;76.14;101806.75;4175380;28;20029;-65
2023/12/19 04:57:33;;;;;;;18.38;11.23;;;;;;;2.70;75.79;101812.66;4176544;28;20127;-66
2023/12/19 04:59:36;;;;;;;15.07;10.65;;;;;;;2.65;75.78;101809.78;4178611;28;20560;-66
2023/12/19 05:01:40;;;;;;;18.02;10.30;;;;;;;2.68;76.10;101814.25;4175618;28;20060;-66
2023/12/19 05:03:44;;;;;;;15.02;11.23;;;;;;;2.70;76.75;101813.59;4177729;28;20060;-66
2023/12/19 05:05:47;;;;;;;18.60;12.10;;;;;;;2.85;76.41;101817.94;4178346;28;20033;-66
2023/12/19 05:07:50;;;;;;;16.92;11.15;;;;;;;2.96;76.34;101809.28;4177537;28;20075;-66
2023/12/19 05:09:53;;;;;;;19.75;14.13;;;;;;;3.20;77.45;101816.84;4177461;28;20041;-67
2023/12/19 05:11:56;;;;;;;19.02;12.82;;;;;;;3.19;76.43;101822.78;4171652;28;20490;-67
2023/12/19 05:13:59;;;;;;;17.17;11.65;;;;;;;3.19;75.31;101818.53;4173661;28;20065;-67
2023/12/19 05:16:10;;;;;;;17.35;10.93;;;;;;;3.06;74.87;101814.25;4174749;28;20044;-66
2023/12/19 05:18:16;;;;;;;17.05;11.30;;;;;;;2.96;74.59;101815.34;4178773;28;20036;-66
2023/12/19 05:20:19;;;;;;;18.35;12.18;;;;;;;2.94;74.56;101816.00;4175392;28;20063;-68
2023/12/19 05:22:22;;;;;;;15.27;10.13;;;;;;;2.92;74.90;101817.56;4172651;28;20060;-66
2023/12/19 05:24:27;;;;;;;18.10;11.65;;;;;;;2.90;74.74;101824.31;4175099;28;20049;-66
2023/12/19 05:26:31;;;;;;;17.15;12.20;;;;;;;2.88;74.74;101815.63;4174999;28;20064;-65
2023/12/19 05:28:36;;;;;;;16.50;11.98;;;;;;;2.86;74.72;101823.22;4176854;28;20048;-66
2023/12/19 05:30:39;;;;;;;15.45;10.02;;;;;;;2.83;75.12;101815.28;4173796;28;20060;-65
2023/12/19 05:32:42;;;;;;;17.27;11.45;;;;;;;2.82;75.32;101820.31;4176840;28;20057;-66
2023/12/19 05:34:45;;;;;;;16.38;10.95;;;;;;;2.83;75.57;101812.72;4178017;28;20132;-66
2023/12/19 05:36:48;;;;;;;16.92;12.10;;;;;;;2.81;76.00;101816.00;4175394;28;20065;-66
2023/12/19 05:38:51;;;;;;;17.98;11.05;;;;;;;2.78;75.39;101809.84;4161020;28;20037;-66
2023/12/19 05:40:57;;;;;;;15.45;10.13;;;;;;;2.74;74.95;101812.09;4177603;28;20041;-66
2023/12/19 05:43:00;;;;;;;18.70;11.18;;;;;;;2.70;75.54;101816.16;4178522;28;20044;-66
2023/12/19 05:45:04;;;;;;;15.95;10.23;;;;;;;2.71;75.57;101822.16;4177039;28;20037;-66
2023/12/19 05:47:06;;;;;;;16.77;10.95;;;;;;;2.74;74.54;101824.94;4177825;28;20561;-66
2023/12/19 05:49:09;;;;;;;19.08;12.75;;;;;;;2.72;74.04;101835.09;4178518;28;20174;-66
2023/12/19 05:51:14;;;;;;;16.63;11.82;;;;;;;2.66;74.80;101838.91;4177635;28;20503;-65
2023/12/19 05:53:17;;;;;;;17.60;11.20;;;;;;;2.62;74.60;101837.84;4176516;28;20637;-65
2023/12/19 05:55:20;;;;;;;17.80;11.48;;;;;;;2.60;74.15;101847.13;4178218;28;20041;-65
2023/12/19 05:57:24;;;;;;;17.88;11.50;;;;;;;2.60;74.23;101849.69;4174712;28;20033;-65
2023/12/19 05:59:28;;;;;;;18.23;11.88;;;;;;;2.73;73.68;101861.66;4177327;28;20594;-65
2023/12/19 06:01:31;;;;;;;18.73;11.57;;;;;;;2.58;73.95;101864.06;4176250;28;20079;-65
2023/12/19 06:03:34;;;;;;;17.10;11.82;;;;;;;2.58;73.22;101866.63;4178530;28;20037;-66
2023/12/19 06:05:38;;;;;;;14.98;10.57;;;;;;;2.58;73.43;101870.09;4178826;28;20501;-66
2023/12/19 06:07:42;;;;;;;15.98;10.82;;;;;;;2.59;73.60;101860.72;4174219;28;20040;-66
2023/12/19 06:09:45;;;;;;;14.80;10.02;;;;;;;2.62;73.85;101868.66;4178038;28;21635;-65
2023/12/19 06:11:48;;;;;;;18.05;11.35;;;;;;;2.62;73.29;101873.78;4178132;28;20037;-65
2023/12/19 06:13:52;;;;;;;18.00;11.27;;;;;;;2.61;73.19;101874.56;4178261;28;20060;-66
2023/12/19 06:15:54;;;;;;;18.17;11.73;;;;;;;2.62;72.89;101871.22;4178116;28;20055;-66
2023/12/19 06:17:57;;;;;;;16.55;11.65;;;;;;;2.63;73.14;101867.88;4175638;28;20037;-66
2023/12/19 06:19:59;;;;;;;17.05;11.45;;;;;;;2.66;73.15;101860.38;4177894;28;20037;-66
2023/12/19 06:22:02;;;;;;;17.50;11.77;;;;;;;2.69;73.45;101857.13;4178072;28;20041;-65
2023/12/19 06:24:06;;;;;;;17.58;12.27;;;;;;;2.62;74.17;101864.38;4177046;28;20045;-65
2023/12/19 06:26:08;;;;;;;16.27;11.00;;;;;;;2.59;73.69;101855.59;4177654;28;20025;-65
2023/12/19 06:28:11;;;;;;;17.83;11.95;;;;;;;2.61;73.67;101854.00;4178109;28;20064;-66
2023/12/19 06:30:15;;;;;;;17.95;12.00;;;;;;;2.59;74.03;101856.47;4175959;28;20083;-66
2023/12/19 06:32:31;;;;;;;18.73;11.98;;;;;;;2.58;73.05;101856.38;4177674;28;20041;-66
2023/12/19 06:34:34;;;;;;;19.42;12.63;;;;;;;2.56;73.93;101843.44;4178029;28;20041;-66
2023/12/19 06:36:38;;;;;;;16.50;11.13;;;;;;;2.59;74.16;101842.75;4177295;28;20037;-66
2023/12/19 06:38:41;;;;;;;19.60;12.15;;;;;;;2.62;73.38;101838.72;4177854;28;20383;-66
2023/12/19 06:40:45;;;;;;;17.27;11.38;;;;;;;2.63;74.28;101829.34;4177865;28;20043;-66
2023/12/19 06:42:48;;;;;;;16.90;10.93;;;;;;;2.73;72.82;101830.84;4178019;28;20040;-66
2023/12/19 06:44:51;;;;;;;16.40;10.63;;;;;;;2.64;73.41;101833.69;4177603;28;20048;-66
2023/12/19 06:46:56;;;;;;;18.77;12.55;;;;;;;2.66;73.42;101818.38;4176251;28;20639;-66
2023/12/19 06:48:59;;;;;;;18.98;11.48;;;;;;;2.64;73.77;101813.13;4177775;28;20418;-65
2023/12/19 06:51:02;;;;;;;18.70;12.15;;;;;;;2.62;73.14;101804.47;4178562;28;20095;-66
2023/12/19 06:53:06;;;;;;;17.67;11.25;;;;;;;2.52;73.24;101809.75;4175746;28;20754;-66
2023/12/19 06:55:11;;;;;;;20.08;12.15;;;;;;;2.53;73.33;101808.97;4177373;28;20110;-66
2023/12/19 06:57:14;;;;;;;19.05;12.35;;;;;;;2.53;73.87;101799.59;4177890;28;20037;-66
2023/12/19 06:59:18;;;;;;;18.77;12.60;;;;;;;2.56;73.88;101809.19;4173754;28;20037;-66
2023/12/19 07:01:21;;;;;;;19.13;12.05;;;;;;;2.56;73.31;101801.47;4178074;28;20477;-66
2023/12/19 07:03:26;;;;;;;16.85;12.15;;;;;;;2.58;73.20;101810.16;4174620;28;20482;-66
2023/12/19 07:05:29;;;;;;;19.70;12.48;;;;;;;2.57;73.60;101816.06;4174374;28;20041;-66
2023/12/19 07:07:32;;;;;;;22.65;13.05;;;;;;;2.52;73.14;101817.44;4176869;28;20116;-66
2023/12/19 07:09:35;;;;;;;18.95;13.07;;;;;;;2.51;73.89;101806.31;4178152;28;20094;-66
2023/12/19 07:11:40;;;;;;;21.13;14.88;;;;;;;2.54;74.03;101803.03;4176479;28;20052;-66
2023/12/19 07:13:44;;;;;;;22.67;15.02;;;;;;;2.51;74.01;101803.75;4176372;28;20041;-66
2023/12/19 07:15:47;;;;;;;20.23;13.75;;;;;;;2.49;73.53;101799.28;4176779;28;20029;-66
2023/12/19 07:17:50;;;;;;;18.10;12.93;;;;;;;2.49;73.77;101796.72;4178020;28;20128;-66
2023/12/19 07:19:57;;;;;;;19.67;13.45;;;;;;;2.46;73.87;101793.94;4176732;28;20041;-66
2023/12/19 07:22:02;;;;;;;18.85;12.85;;;;;;;2.46;73.87;101799.06;4175541;28;20045;-66
2023/12/19 07:24:06;;;;;;;20.90;15.00;;;;;;;2.43;73.60;101803.19;4176224;28;20079;-65
2023/12/19 07:26:20;;;;;;;19.02;13.27;;;;;;;2.42;73.70;101796.28;4175464;28;20057;-65
2023/12/19 07:28:23;;;;;;;20.67;13.48;;;;;;;2.42;74.34;101788.59;4173311;28;20079;-65
2023/12/19 07:30:26;;;;;;;20.95;12.82;;;;;;;2.48;73.85;101794.91;4178041;28;20049;-66
2023/12/19 07:32:29;;;;;;;23.63;13.77;;;;;;;2.38;74.01;101778.00;4179684;28;20033;-66
2023/12/19 07:34:32;;;;;;;21.30;13.95;;;;;;;2.33;74.09;101779.38;4180223;28;20080;-66
2023/12/19 07:36:37;;;;;;;19.02;12.52;;;;;;;2.33;74.44;101769.97;4180120;28;20036;-66
2023/12/19 07:38:40;;;;;;;20.20;12.10;;;;;;;2.22;74.29;101764.13;4178979;28;20033;-66
2023/12/19 07:40:43;;;;;;;19.48;13.23;;;;;;;2.23;74.57;101759.88;4180242;28;20037;-66
2023/12/19 07:42:45;;;;;;;24.90;14.27;;;;;;;2.24;74.78;101761.66;4179618;28;20120;-66
2023/12/19 07:44:48;;;;;;;19.05;12.32;;;;;;;2.20;75.50;101764.78;4179456;28;20065;-66
2023/12/19 07:46:52;;;;;;;19.98;14.20;;;;;;;2.21;75.78;101761.44;4179150;28;20033;-66
2023/12/19 07:48:55;;;;;;;21.92;14.27;;;;;;;2.24;75.54;101761.66;4179863;28;20067;-66
2023/12/19 07:50:58;;;;;;;18.77;12.25;;;;;;;2.47;74.97;101760.69;4178314;28;20044;-66
2023/12/19 07:53:03;;;;;;;16.75;12.50;;;;;;;2.62;73.98;101756.56;4180454;28;20367;-66
2023/12/19 07:55:10;;;;;;;24.73;15.20;;;;;;;2.54;73.97;101768.00;4173042;28;20061;-66
2023/12/19 07:57:13;;;;;;;19.83;12.32;;;;;;;2.44;74.02;101755.34;4180108;28;20068;-66
2023/12/19 07:59:16;;;;;;;19.58;12.93;;;;;;;2.44;74.31;101760.47;4179193;28;20574;-66
2023/12/19 08:01:20;;;;;;;20.88;13.77;;;;;;;2.48;75.25;101754.72;4177090;28;20124;-66
2023/12/19 08:03:24;;;;;;;18.33;12.63;;;;;;;2.55;75.90;101748.34;4178934;28;20044;-66
2023/12/19 08:05:27;;;;;;;18.70;13.07;;;;;;;2.59;75.23;101745.22;4180134;28;20037;-66
2023/12/19 08:07:30;;;;;;;18.48;12.40;;;;;;;2.62;76.00;101746.28;4179526;28;20037;-66
2023/12/19 08:09:34;;;;;;;23.33;13.75;;;;;;;2.72;75.10;101741.78;4175437;28;20045;-66
2023/12/19 08:11:36;;;;;;;17.60;11.93;;;;;;;2.77;76.05;101731.03;4178776;28;20052;-66
2023/12/19 08:13:39;;;;;;;17.40;11.18;;;;;;;2.81;75.21;101731.25;4162538;28;20042;-66
2023/12/19 08:15:42;;;;;;;16.95;11.98;;;;;;;2.85;75.49;101730.63;4178095;28;20071;-66
2023/12/19 08:17:46;;;;;;;15.88;10.82;;;;;;;2.94;74.48;101734.69;4176058;28;20037;-66
2023/12/19 08:19:49;;;;;;;17.08;11.68;;;;;;;3.01;74.99;101740.22;4179663;28;20417;-66
2023/12/19 08:21:54;;;;;;;20.35;12.25;;;;;;;3.07;74.43;101720.97;4179406;28;20037;-66
2023/12/19 08:23:57;;;;;;;;;;;;;;;3.03;73.91;101736.97;4180458;28;20040;-65
2023/12/19 08:26:02;;;;;;;16.45;10.50;;;;;;;2.86;73.83;101743.59;4195350;28;19928;-65
2023/12/19 08:28:05;;;;;;;18.52;11.13;;;;;;;2.87;73.73;101737.66;4178636;28;20033;-66
2023/12/19 08:30:10;;;;;;;18.45;11.80;;;;;;;2.95;73.34;101743.31;4178588;28;20033;-66
2023/12/19 08:32:13;;;;;;;14.55;10.05;;;;;;;2.87;73.63;101747.91;4179134;28;20033;-66
2023/12/19 08:34:18;;;;;;;16.15;10.50;;;;;;;2.83;74.21;101748.50;4180168;28;20033;-66
2023/12/19 08:36:21;;;;;;;;;;;;;;;2.73;73.60;101744.47;4179330;28;20041;-66
2023/12/19 08:38:37;;;;;;;16.00;10.82;;;;;;;2.70;73.63;101749.38;4176399;28;19920;-66
2023/12/19 08:40:39;;;;;;;17.27;10.73;;;;;;;2.77;73.86;101751.59;4178991;28;20422;-66
2023/12/19 08:42:43;;;;;;;17.10;11.57;;;;;;;2.88;73.96;101759.09;4178243;28;20041;-66
2023/12/19 08:44:46;;;;;;;15.60;10.90;;;;;;;2.90;73.32;101747.25;4179896;28;20041;-67
2023/12/19 08:46:49;;;;;;;14.25;9.82;;;;;;;2.94;72.86;101755.25;4186564;28;20509;-66
2023/12/19 08:48:52;;;;;;;14.38;10.20;;;;;;;2.99;72.76;101757.25;4179320;28;20033;-67
2023/12/19 08:50:55;;;;;;;15.48;10.02;;;;;;;2.93;72.93;101757.72;4179446;28;20407;-67
2023/12/19 08:52:58;;;;;;;19.20;11.35;;;;;;;2.94;73.07;101769.78;4179965;28;20047;-67
2023/12/19 08:55:01;;;;;;;17.17;11.77;;;;;;;3.07;73.05;101767.22;4178735;28;21193;-66
2023/12/19 08:57:05;;;;;;;14.98;9.38;;;;;;;3.08;72.85;101757.81;4178209;28;20049;-66
2023/12/19 08:59:08;;;;;;;15.98;10.40;;;;;;;3.18;72.93;101746.47;4178915;28;20526;-66
2023/12/19 09:01:12;;;;;;;15.23;9.75;;;;;;;3.19;72.74;101755.97;4180121;28;20083;-66
2023/12/19 09:03:15;;;;;;;15.13;9.52;;;;;;;3.19;73.01;101758.53;4178803;28;20048;-66
2023/12/19 09:05:19;;;;;;;14.80;9.95;;;;;;;3.25;73.12;101748.66;4178902;28;20045;-67
2023/12/19 09:07:21;;;;;;;14.77;9.95;;;;;;;3.38;72.63;101758.94;4176229;28;20037;-67
2023/12/19 09:09:24;;;;;;;16.13;9.73;;;;;;;3.21;72.95;101762.09;4178901;28;20550;-67
2023/12/19 09:11:27;;;;;;;14.73;9.73;;;;;;;3.19;73.36;101753.41;4177268;28;20124;-66
2023/12/19 09:13:34;;;;;;;15.25;10.02;;;;;;;3.22;72.96;101745.91;4178106;28;20037;-66
2023/12/19 09:15:39;;;;;;;16.20;10.55;;;;;;;3.31;73.40;101749.03;4176709;28;20116;-66
2023/12/19 09:17:41;;;;;;;14.85;10.00;;;;;;;3.32;73.00;101740.56;4178713;28;20033;-66
2023/12/19 09:19:44;;;;;;;14.82;9.93;;;;;;;3.31;73.25;101742.25;4178574;28;20045;-67
2023/12/19 09:21:47;;;;;;;14.00;9.90;;;;;;;3.41;72.90;101733.41;4178799;28;20029;-66
2023/12/19 09:23:50;;;;;;;15.13;10.02;;;;;;;3.37;73.41;101731.44;4177518;28;20105;-66
2023/12/19 09:25:53;;;;;;;15.60;10.60;;;;;;;3.46;73.23;101726.00;4178908;28;20568;-66
2023/12/19 09:27:56;;;;;;;14.68;9.80;;;;;;;3.42;73.38;101734.34;4177870;28;20033;-65
2023/12/19 09:29:59;;;;;;;15.20;9.80;;;;;;;3.32;72.80;101726.00;4160965;28;20044;-66